createdAt,value
2022-11-16T00:00:28.575Z,5.22
2022-11-16T00:02:58.372Z,5.19
2022-11-16T00:05:28.308Z,5.14
2022-11-16T00:07:55.657Z,5.23
2022-11-16T00:10:26.820Z,5.21
2022-11-16T00:12:57.552Z,5.11
2022-11-16T00:15:28.566Z,5.08
2022-11-16T00:17:55.147Z,5.05
2022-11-16T00:20:21.611Z,5.13
2022-11-16T00:22:48.142Z,5.20
2022-11-16T00:25:14.764Z,5.08
2022-11-16T00:27:41.404Z,5.12
2022-11-16T00:30:09.909Z,5.03
2022-11-16T00:32:36.450Z,5.23
2022-11-16T00:35:03.026Z,5.17
2022-11-16T00:37:29.531Z,5.16
2022-11-16T00:39:56.341Z,5.06
2022-11-16T00:42:22.857Z,5.05
2022-11-16T00:44:49.728Z,5.02
2022-11-16T00:47:16.431Z,5.00
2022-11-16T00:49:43.204Z,4.94
2022-11-16T00:52:09.782Z,4.95
2022-11-16T00:54:36.331Z,4.83
2022-11-16T00:57:03.041Z,4.83
2022-11-16T00:59:29.599Z,4.82
2022-11-16T01:01:56.119Z,4.87
2022-11-16T01:04:22.662Z,4.88
2022-11-16T01:06:49.278Z,4.90
2022-11-16T01:09:15.918Z,4.93
2022-11-16T01:12:01.264Z,4.97
2022-11-16T01:14:28.046Z,4.96
2022-11-16T01:16:54.646Z,5.07
2022-11-16T01:19:21.502Z,4.95
2022-11-16T01:21:48.059Z,4.90
2022-11-16T01:24:14.561Z,4.90
2022-11-16T01:26:41.215Z,4.84
2022-11-16T01:29:07.790Z,4.85
2022-11-16T01:31:34.366Z,4.81
2022-11-16T01:34:00.901Z,4.83
2022-11-16T01:36:27.460Z,4.75
2022-11-16T01:38:54.177Z,4.83
2022-11-16T01:41:22.408Z,4.82
2022-11-16T01:43:52.256Z,4.75
2022-11-16T01:46:18.870Z,4.83
2022-11-16T01:48:46.191Z,4.83
2022-11-16T01:51:12.825Z,4.74
2022-11-16T01:53:39.442Z,4.78
2022-11-16T01:56:06.122Z,4.70
2022-11-16T01:58:32.931Z,4.69
2022-11-16T02:00:59.735Z,4.67
2022-11-16T02:03:26.361Z,4.73
2022-11-16T02:05:56.060Z,4.86
2022-11-16T02:08:51.319Z,4.78
2022-11-16T02:11:28.491Z,4.69
2022-11-16T02:14:06.990Z,4.84
2022-11-16T02:16:33.424Z,4.84
2022-11-16T02:18:59.959Z,4.84
2022-11-16T02:21:26.572Z,4.73
2022-11-16T02:24:11.400Z,4.66
2022-11-16T02:26:56.314Z,4.55
2022-11-16T02:29:25.984Z,4.59
2022-11-16T02:32:01.889Z,4.54
2022-11-16T02:34:32.719Z,4.55
2022-11-16T02:37:01.745Z,4.66
2022-11-16T02:39:29.793Z,4.54
2022-11-16T02:41:57.752Z,4.61
2022-11-16T02:44:44.947Z,4.58
2022-11-16T02:47:13.966Z,4.66
2022-11-16T02:49:44.264Z,4.69
2022-11-16T02:52:11.999Z,4.69
2022-11-16T02:54:38.504Z,4.69
2022-11-16T02:57:04.989Z,4.52
2022-11-16T02:59:31.673Z,4.64
2022-11-16T03:02:03.275Z,4.53
2022-11-16T03:04:36.906Z,4.50
2022-11-16T03:07:05.671Z,4.61
2022-11-16T03:09:33.771Z,4.57
2022-11-16T03:12:02.938Z,4.73
2022-11-16T03:14:34.504Z,4.57
2022-11-16T03:17:02.195Z,4.50
2022-11-16T03:19:49.014Z,4.49
2022-11-16T03:22:24.905Z,4.61
2022-11-16T03:24:51.492Z,4.53
2022-11-16T03:27:20.751Z,4.55
2022-11-16T03:29:53.220Z,4.75
2022-11-16T03:32:23.052Z,4.54
2022-11-16T03:34:57.240Z,4.42
2022-11-16T03:37:24.821Z,4.53
2022-11-16T03:39:52.828Z,4.42
2022-11-16T03:42:21.333Z,4.46
2022-11-16T03:44:49.652Z,4.49
2022-11-16T03:47:16.386Z,4.55
2022-11-16T03:49:46.293Z,4.47
2022-11-16T03:52:12.994Z,4.45
2022-11-16T03:54:39.489Z,4.41
2022-11-16T03:57:06.480Z,4.49
2022-11-16T03:59:33.463Z,4.35
2022-11-16T04:02:00.023Z,4.47
2022-11-16T04:04:45.321Z,4.50
2022-11-16T04:07:30.451Z,4.57
2022-11-16T04:10:15.560Z,4.54
2022-11-16T04:13:02.388Z,4.48
2022-11-16T04:15:47.545Z,4.73
2022-11-16T04:18:33.169Z,4.63
2022-11-16T04:21:19.082Z,4.56
2022-11-16T04:24:05.218Z,4.65
2022-11-16T04:26:51.374Z,4.72
2022-11-16T04:29:18.151Z,4.63
2022-11-16T04:32:03.322Z,4.62
2022-11-16T04:34:48.303Z,4.84
2022-11-16T04:37:34.439Z,4.70
2022-11-16T04:40:01.029Z,4.68
2022-11-16T04:42:27.511Z,4.70
2022-11-16T04:45:12.571Z,4.71
2022-11-16T04:47:39.175Z,4.70
2022-11-16T04:50:06.423Z,4.81
2022-11-16T04:52:33.005Z,4.77
2022-11-16T04:54:59.539Z,4.77
2022-11-16T04:57:26.030Z,4.83
2022-11-16T04:59:52.610Z,4.90
2022-11-16T05:02:19.332Z,4.86
2022-11-16T05:04:45.838Z,4.85
2022-11-16T05:07:13.354Z,4.92
2022-11-16T05:09:42.724Z,4.98
2022-11-16T05:12:19.789Z,5.09
2022-11-16T05:14:46.372Z,5.09
2022-11-16T05:17:13.038Z,5.08
2022-11-16T05:19:58.119Z,4.98
2022-11-16T05:22:25.117Z,5.04
2022-11-16T05:24:51.870Z,5.20
2022-11-16T05:27:19.639Z,5.17
2022-11-16T05:29:46.314Z,5.16
2022-11-16T05:32:13.547Z,5.09
2022-11-16T05:34:40.116Z,5.23
2022-11-16T05:37:06.911Z,5.34
2022-11-16T05:39:33.747Z,5.25
2022-11-16T05:42:00.291Z,5.19
2022-11-16T05:44:26.956Z,5.28
2022-11-16T05:46:53.807Z,5.21
2022-11-16T05:49:20.352Z,5.18
2022-11-16T05:51:47.539Z,5.32
2022-11-16T05:54:15.643Z,5.46
2022-11-16T05:56:42.854Z,5.37
2022-11-16T05:59:13.790Z,5.28
2022-11-16T06:01:43.334Z,5.23
2022-11-16T06:04:10.131Z,5.35
2022-11-16T06:06:36.658Z,5.47
2022-11-16T06:09:03.360Z,5.38
2022-11-16T06:11:35.345Z,5.36
2022-11-16T06:14:02.379Z,5.46
2022-11-16T06:16:29.207Z,5.36
2022-11-16T06:18:55.694Z,5.43
2022-11-16T06:21:22.222Z,5.34
2022-11-16T06:23:48.893Z,5.54
2022-11-16T06:26:15.417Z,5.41
2022-11-16T06:28:42.258Z,5.30
2022-11-16T06:31:08.795Z,5.31
2022-11-16T06:33:35.341Z,5.43
2022-11-16T06:36:01.833Z,5.41
2022-11-16T06:38:28.513Z,5.50
2022-11-16T06:40:56.195Z,5.47
2022-11-16T06:43:23.137Z,5.46
2022-11-16T06:45:50.874Z,5.56
2022-11-16T06:48:18.275Z,5.59
2022-11-16T06:50:45.228Z,5.61
2022-11-16T06:53:11.733Z,5.46
2022-11-16T06:55:38.186Z,5.56
2022-11-16T06:58:04.687Z,5.69
2022-11-16T07:00:31.534Z,5.73
2022-11-16T07:02:58.558Z,5.77
2022-11-16T07:05:25.070Z,5.65
2022-11-16T07:07:55.409Z,5.73
2022-11-16T07:10:22.598Z,5.57
2022-11-16T07:12:49.152Z,5.51
2022-11-16T07:15:15.842Z,5.65
2022-11-16T07:17:42.985Z,5.56
2022-11-16T07:20:09.643Z,5.62
2022-11-16T07:22:36.183Z,5.70
2022-11-16T07:25:02.715Z,5.66
2022-11-16T07:27:29.192Z,5.71
2022-11-16T07:29:55.848Z,5.69
2022-11-16T07:32:22.355Z,5.70
2022-11-16T07:34:48.897Z,5.73
2022-11-16T07:37:15.443Z,5.71
2022-11-16T07:39:42.088Z,5.75
2022-11-16T07:42:11.832Z,5.73
2022-11-16T07:44:38.991Z,5.68
2022-11-16T07:47:06.009Z,5.68
2022-11-16T07:49:32.669Z,5.75
2022-11-16T07:51:59.259Z,5.73
2022-11-16T07:54:25.717Z,5.78
2022-11-16T07:56:52.357Z,5.78
2022-11-16T07:59:19.052Z,5.84
2022-11-16T08:01:47.248Z,5.76
2022-11-16T08:04:15.564Z,5.68
2022-11-16T08:06:42.092Z,5.67
2022-11-16T08:09:09.077Z,5.66
2022-11-16T08:11:35.565Z,5.74
2022-11-16T08:14:02.148Z,5.70
2022-11-16T08:16:30.779Z,5.82
2022-11-16T08:18:59.581Z,5.81
2022-11-16T08:21:29.008Z,5.79
2022-11-16T08:23:59.100Z,5.99
2022-11-16T08:26:29.298Z,5.92
2022-11-16T08:29:00.245Z,5.90
2022-11-16T08:31:28.111Z,5.82
2022-11-16T08:33:58.203Z,5.93
2022-11-16T08:36:27.918Z,5.97
2022-11-16T08:38:56.886Z,5.94
2022-11-16T08:41:26.214Z,5.95
2022-11-16T08:43:54.379Z,5.96
2022-11-16T08:46:21.773Z,5.84
2022-11-16T08:48:50.413Z,5.81
2022-11-16T08:51:24.541Z,5.86
2022-11-16T08:53:55.686Z,5.78
2022-11-16T08:56:24.794Z,5.86
2022-11-16T08:58:58.611Z,5.85
2022-11-16T09:01:26.667Z,5.94
2022-11-16T09:03:56.937Z,5.98
2022-11-16T09:06:27.395Z,6.05
2022-11-16T09:08:56.704Z,6.06
2022-11-16T09:11:24.343Z,6.17
2022-11-16T09:13:54.627Z,6.13
2022-11-16T09:16:23.850Z,6.23
2022-11-16T09:18:53.367Z,5.99
2022-11-16T09:21:24.781Z,6.16
2022-11-16T09:23:51.891Z,6.17
2022-11-16T09:26:24.420Z,6.08
2022-11-16T09:28:58.426Z,6.12
2022-11-16T09:31:28.383Z,6.04
2022-11-16T09:33:58.520Z,6.15
2022-11-16T09:36:29.008Z,6.23
2022-11-16T09:41:56.358Z,6.13
2022-11-16T09:44:26.072Z,6.13
2022-11-16T09:46:56.910Z,6.21
2022-11-16T09:49:28.296Z,6.09
2022-11-16T09:51:59.898Z,6.25
2022-11-16T09:54:35.595Z,6.21
2022-11-16T09:57:12.140Z,6.19
2022-11-16T09:59:41.980Z,6.29
2022-11-16T10:02:21.046Z,6.20
2022-11-16T10:04:58.663Z,6.16
2022-11-16T10:07:42.663Z,6.20
2022-11-16T10:10:17.852Z,6.41
2022-11-16T10:12:51.341Z,6.34
2022-11-16T10:15:33.890Z,6.15
2022-11-16T10:18:22.957Z,6.21
2022-11-16T10:20:51.887Z,6.21
2022-11-16T10:23:38.299Z,6.31
2022-11-16T10:26:11.191Z,6.13
2022-11-16T10:28:49.251Z,6.25
2022-11-16T10:31:23.969Z,6.22
2022-11-16T10:33:55.361Z,6.08
2022-11-16T10:36:27.140Z,6.12
2022-11-16T10:38:57.518Z,6.11
2022-11-16T10:41:36.622Z,6.07
2022-11-16T10:44:14.752Z,6.17
2022-11-16T10:46:45.458Z,5.99
2022-11-16T10:49:18.728Z,6.03
2022-11-16T10:51:48.502Z,6.15
2022-11-16T10:54:18.941Z,6.04
2022-11-16T10:56:49.902Z,5.95
2022-11-16T10:59:19.112Z,6.21
2022-11-16T11:01:57.313Z,6.14
2022-11-16T11:04:25.548Z,6.14
2022-11-16T11:06:52.139Z,6.06
2022-11-16T11:09:35.104Z,6.08
2022-11-16T11:12:36.616Z,5.99
2022-11-16T11:15:12.290Z,5.97
2022-11-16T11:17:40.078Z,6.06
2022-11-16T11:20:27.391Z,5.94
2022-11-16T11:23:04.989Z,5.95
2022-11-16T11:25:37.079Z,6.01
2022-11-16T11:28:21.482Z,5.87
2022-11-16T11:30:56.685Z,6.14
2022-11-16T11:33:24.581Z,6.10
2022-11-16T11:35:59.290Z,6.06
2022-11-16T11:38:26.003Z,6.14
2022-11-16T11:41:00.221Z,5.98
2022-11-16T11:43:30.035Z,6.20
2022-11-16T11:46:18.666Z,6.03
2022-11-16T11:49:11.727Z,6.02
2022-11-16T11:51:45.496Z,6.11
2022-11-16T11:54:24.330Z,5.98
2022-11-16T11:56:54.195Z,6.00
2022-11-16T11:59:22.972Z,6.09
2022-11-16T12:02:00.608Z,6.07
2022-11-16T12:04:30.273Z,6.05
2022-11-16T12:07:00.961Z,6.01
2022-11-16T12:09:27.676Z,5.96
2022-11-16T12:12:04.067Z,6.18
2022-11-16T12:14:35.852Z,5.88
2022-11-16T12:17:08.090Z,5.99
2022-11-16T12:20:01.029Z,5.97
2022-11-16T12:22:42.384Z,5.85
2022-11-16T12:25:22.678Z,6.02
2022-11-16T12:28:06.817Z,5.95
2022-11-16T12:30:35.659Z,6.11
2022-11-16T12:33:16.401Z,6.12
2022-11-16T12:36:01.401Z,6.06
2022-11-16T12:38:40.601Z,6.06
2022-11-16T12:41:27.806Z,6.14
2022-11-16T12:43:54.432Z,6.20
2022-11-16T12:46:27.260Z,6.14
2022-11-16T12:49:12.354Z,6.03
2022-11-16T12:51:56.154Z,5.94
2022-11-16T12:54:24.146Z,6.08
2022-11-16T12:57:34.240Z,5.99
2022-11-16T13:00:07.157Z,6.07
2022-11-16T13:02:46.983Z,6.01
2022-11-16T13:05:16.900Z,5.99
2022-11-16T13:07:43.397Z,6.11
2022-11-16T13:10:15.927Z,6.17
2022-11-16T13:12:43.647Z,6.19
2022-11-16T13:15:19.058Z,6.03
2022-11-16T13:17:52.023Z,5.98
2022-11-16T13:20:24.416Z,6.08
2022-11-16T13:23:01.978Z,6.03
2022-11-16T13:25:43.555Z,6.08
2022-11-16T13:28:33.463Z,6.21
2022-11-16T13:31:11.559Z,6.08
2022-11-16T13:33:51.187Z,6.18
2022-11-16T13:36:43.391Z,6.27
2022-11-16T13:39:11.436Z,6.30
2022-11-16T13:41:48.029Z,6.22
2022-11-16T13:44:20.779Z,6.19
2022-11-16T13:46:57.580Z,6.21
2022-11-16T13:49:29.725Z,6.37
2022-11-16T13:52:11.654Z,6.12
2022-11-16T13:54:59.194Z,6.04
2022-11-16T13:57:33.894Z,6.09
2022-11-16T14:00:04.930Z,6.22
2022-11-16T14:02:33.641Z,6.16
2022-11-16T14:05:01.971Z,6.30
2022-11-16T14:07:30.617Z,6.26
2022-11-16T14:09:57.410Z,6.18
2022-11-16T14:12:38.912Z,6.44
2022-11-16T14:15:18.350Z,6.44
2022-11-16T14:17:53.805Z,6.34
2022-11-16T14:20:32.669Z,6.39
2022-11-16T14:23:25.629Z,6.34
2022-11-16T14:26:04.399Z,6.19
2022-11-16T14:28:34.022Z,6.24
2022-11-16T14:31:20.716Z,6.23
2022-11-16T14:33:52.845Z,6.39
2022-11-16T14:36:34.193Z,6.29
2022-11-16T14:39:14.457Z,6.24
2022-11-16T14:41:43.450Z,6.20
2022-11-16T14:44:10.353Z,6.10
2022-11-16T14:46:38.128Z,6.40
2022-11-16T14:49:04.915Z,6.30
2022-11-16T14:51:36.799Z,6.17
2022-11-16T14:54:25.969Z,6.23
2022-11-16T14:56:59.503Z,6.31
2022-11-16T14:59:26.527Z,6.22
2022-11-16T15:01:53.373Z,6.14
2022-11-16T15:04:20.833Z,6.22
2022-11-16T15:06:50.493Z,6.12
2022-11-16T15:09:21.231Z,6.26
2022-11-16T15:12:07.975Z,6.38
2022-11-16T15:14:37.368Z,6.49
2022-11-16T15:17:06.730Z,6.27
2022-11-16T15:19:33.247Z,6.23
2022-11-16T15:22:00.789Z,6.06
2022-11-16T15:24:31.512Z,6.19
2022-11-16T15:27:19.131Z,6.13
2022-11-16T15:29:45.616Z,5.99
2022-11-16T15:32:16.763Z,6.02
2022-11-16T15:34:45.909Z,6.06
2022-11-16T15:37:15.147Z,5.98
2022-11-16T15:39:42.773Z,5.87
2022-11-16T15:42:13.777Z,5.88
2022-11-16T15:44:41.101Z,5.83
2022-11-16T15:47:11.542Z,5.77
2022-11-16T15:49:40.147Z,5.79
2022-11-16T15:52:06.691Z,5.87
2022-11-16T15:54:54.651Z,5.75
2022-11-16T15:57:22.137Z,5.72
2022-11-16T15:59:57.784Z,5.79
2022-11-16T16:02:27.630Z,5.74
2022-11-16T16:04:54.143Z,5.67
2022-11-16T16:07:40.881Z,5.69
2022-11-16T16:10:19.752Z,5.64
2022-11-16T16:12:53.327Z,5.44
2022-11-16T16:15:40.365Z,5.50
2022-11-16T16:18:13.941Z,5.59
2022-11-16T16:20:47.310Z,5.67
2022-11-16T16:23:17.696Z,5.64
2022-11-16T16:25:50.118Z,5.52
2022-11-16T16:28:17.095Z,5.86
2022-11-16T16:30:43.592Z,5.61
2022-11-16T16:33:18.603Z,5.63
2022-11-16T16:35:49.613Z,5.73
2022-11-16T16:38:16.135Z,5.67
2022-11-16T16:40:42.624Z,5.61
2022-11-16T16:43:09.043Z,5.54
2022-11-16T16:45:41.491Z,5.47
2022-11-16T16:48:17.191Z,5.44
2022-11-16T16:50:43.786Z,5.62
2022-11-16T16:53:13.589Z,5.55
2022-11-16T16:55:40.501Z,5.62
2022-11-16T16:58:07.005Z,5.58
2022-11-16T17:00:33.481Z,5.61
2022-11-16T17:02:59.983Z,5.57
2022-11-16T17:05:26.551Z,5.48
2022-11-16T17:07:56.450Z,5.62
2022-11-16T17:10:23.280Z,5.57
2022-11-16T17:12:52.910Z,5.61
2022-11-16T17:15:19.696Z,5.63
2022-11-16T17:17:46.265Z,5.64
2022-11-16T17:20:12.870Z,5.59
2022-11-16T17:22:39.317Z,5.69
2022-11-16T17:25:05.837Z,5.61
2022-11-16T17:27:32.362Z,5.75
2022-11-16T17:29:58.852Z,5.61
2022-11-16T17:32:25.376Z,5.71
2022-11-16T17:34:51.912Z,5.63
2022-11-16T17:37:18.577Z,5.51
2022-11-16T17:39:45.044Z,5.46
2022-11-16T17:42:11.460Z,5.68
2022-11-16T17:44:38.030Z,5.66
2022-11-16T17:47:04.585Z,5.68
2022-11-16T17:49:31.085Z,5.63
2022-11-16T17:51:57.645Z,5.76
2022-11-16T17:54:24.153Z,5.64
2022-11-16T17:56:50.665Z,5.59
2022-11-16T17:59:17.136Z,5.70
2022-11-16T18:01:43.647Z,5.70
2022-11-16T18:04:10.283Z,5.68
2022-11-16T18:06:36.841Z,5.65
2022-11-16T18:09:03.384Z,5.74
2022-11-16T18:11:29.921Z,5.67
2022-11-16T18:14:05.502Z,5.60
2022-11-16T18:16:33.138Z,5.69
2022-11-16T18:19:01.008Z,5.65
2022-11-16T18:21:27.478Z,5.51
2022-11-16T18:23:54.022Z,5.48
2022-11-16T18:26:21.316Z,5.56
2022-11-16T18:28:51.747Z,5.56
2022-11-16T18:31:19.491Z,5.56
2022-11-16T18:33:46.350Z,5.60
2022-11-16T18:36:13.176Z,5.69
2022-11-16T18:38:39.695Z,5.63
2022-11-16T18:41:06.226Z,5.64
2022-11-16T18:43:34.335Z,5.66
2022-11-16T18:46:01.111Z,5.60
2022-11-16T18:48:27.793Z,5.73
2022-11-16T18:50:57.586Z,5.57
2022-11-16T18:53:24.089Z,5.51
2022-11-16T18:55:56.520Z,5.63
2022-11-16T18:58:49.307Z,5.47
2022-11-16T19:01:12.656Z,5.60
2022-11-16T19:03:39.230Z,5.74
2022-11-16T19:06:07.632Z,5.63
2022-11-16T19:08:34.680Z,5.61
2022-11-16T19:11:08.546Z,5.72
2022-11-16T19:13:35.148Z,5.71
2022-11-16T19:16:02.008Z,5.57
2022-11-16T19:18:28.593Z,5.74
2022-11-16T19:21:08.477Z,5.76
2022-11-16T19:23:38.938Z,5.63
2022-11-16T19:26:06.170Z,5.61
2022-11-16T19:28:39.817Z,5.67
2022-11-16T19:31:13.771Z,5.67
2022-11-16T19:33:40.765Z,5.61
2022-11-16T19:36:11.585Z,5.90
2022-11-16T19:38:38.194Z,5.71
2022-11-16T19:41:05.375Z,5.74
2022-11-16T19:43:32.312Z,5.66
2022-11-16T19:46:06.583Z,5.53
2022-11-16T19:48:33.488Z,5.67
2022-11-16T19:51:07.471Z,5.62
2022-11-16T19:53:34.939Z,5.69
2022-11-16T19:56:01.723Z,5.61
2022-11-16T19:58:28.633Z,5.74
2022-11-16T20:01:05.608Z,5.70
2022-11-16T20:03:32.657Z,5.62
2022-11-16T20:06:05.634Z,5.71
2022-11-16T20:08:32.172Z,5.70
2022-11-16T20:10:58.650Z,5.74
2022-11-16T20:13:25.075Z,5.71
2022-11-16T20:15:51.573Z,5.55
2022-11-16T20:18:18.026Z,5.53
2022-11-16T20:20:44.585Z,5.65
2022-11-16T20:23:14.479Z,5.79
2022-11-16T20:25:41.102Z,5.65
2022-11-16T20:28:07.598Z,5.73
2022-11-16T20:30:34.070Z,5.60
2022-11-16T20:33:00.553Z,5.61
2022-11-16T20:35:27.010Z,5.56
2022-11-16T20:37:53.480Z,5.79
2022-11-16T20:40:19.939Z,5.65
2022-11-16T20:42:46.888Z,5.68
2022-11-16T20:45:13.385Z,5.65
2022-11-16T20:47:39.837Z,5.81
2022-11-16T20:50:06.411Z,5.89
2022-11-16T20:52:33.609Z,5.87
2022-11-16T20:55:00.168Z,5.82
2022-11-16T20:57:26.637Z,5.70
2022-11-16T20:59:53.149Z,5.60
2022-11-16T21:02:19.585Z,5.75
2022-11-16T21:04:46.071Z,5.71
2022-11-16T21:07:12.603Z,5.82
2022-11-16T21:09:59.039Z,5.70
2022-11-16T21:12:44.375Z,5.57
2022-11-16T21:15:10.901Z,5.77
2022-11-16T21:17:37.385Z,5.57
2022-11-16T21:20:26.408Z,5.54
2022-11-16T21:22:50.580Z,5.53
2022-11-16T21:25:17.147Z,5.65
2022-11-16T21:27:43.777Z,5.52
2022-11-16T21:30:10.497Z,5.55
2022-11-16T21:32:36.959Z,5.61
2022-11-16T21:35:03.519Z,5.62
2022-11-16T21:37:30.138Z,5.42
2022-11-16T21:39:56.649Z,5.40
2022-11-16T21:42:23.134Z,5.42
2022-11-16T21:44:49.623Z,5.51
2022-11-16T21:47:16.109Z,5.31
2022-11-16T21:50:02.394Z,5.37
2022-11-16T21:52:29.060Z,5.33
2022-11-16T21:55:01.272Z,5.32
2022-11-16T21:57:27.925Z,5.15
2022-11-16T21:59:54.461Z,5.38
2022-11-16T22:02:20.913Z,5.45
2022-11-16T22:05:06.135Z,5.23
2022-11-16T22:07:38.390Z,5.21
2022-11-16T22:10:11.334Z,5.19
2022-11-16T22:12:38.166Z,5.24
2022-11-16T22:15:05.694Z,5.24
2022-11-16T22:17:32.497Z,5.16
2022-11-16T22:19:59.165Z,5.09
2022-11-16T22:22:25.755Z,5.29
2022-11-16T22:24:52.291Z,5.17
2022-11-16T22:27:19.055Z,5.01
2022-11-16T22:29:45.539Z,4.97
2022-11-16T22:32:12.058Z,5.04
2022-11-16T22:34:38.603Z,5.01
2022-11-16T22:37:06.040Z,5.07
2022-11-16T22:39:32.497Z,5.06
2022-11-16T22:41:58.974Z,5.07
2022-11-16T22:44:25.434Z,5.14
2022-11-16T22:46:52.742Z,4.99
2022-11-16T22:49:19.411Z,4.89
2022-11-16T22:51:45.961Z,5.01
2022-11-16T22:54:12.925Z,4.85
2022-11-16T22:56:39.643Z,4.83
2022-11-16T22:59:06.387Z,4.84
2022-11-16T23:01:33.259Z,4.90
2022-11-16T23:03:59.822Z,4.93
2022-11-16T23:06:28.205Z,4.90
2022-11-16T23:08:55.030Z,4.81
2022-11-16T23:11:41.289Z,4.78
2022-11-16T23:14:29.139Z,4.89
2022-11-16T23:16:55.617Z,4.77
2022-11-16T23:19:40.810Z,4.74
2022-11-16T23:22:26.713Z,4.76
2022-11-16T23:25:11.799Z,4.68
2022-11-16T23:27:41.063Z,4.52
2022-11-16T23:30:12.516Z,4.62
2022-11-16T23:32:39.720Z,4.71
2022-11-16T23:35:06.322Z,4.46
2022-11-16T23:37:32.747Z,4.51
2022-11-16T23:39:59.277Z,4.41
2022-11-16T23:42:44.209Z,4.48
2022-11-16T23:45:10.735Z,4.32
2022-11-16T23:47:37.179Z,4.45
2022-11-16T23:50:03.857Z,4.50
2022-11-16T23:52:30.314Z,4.29
2022-11-16T23:54:56.777Z,4.23
2022-11-16T23:57:23.249Z,4.37
2022-11-16T23:59:49.696Z,4.34
